createdAt,value
2018-09-03T00:02:05.513Z,17.50
2018-09-03T00:04:35.171Z,19.23
2018-09-03T00:07:05.257Z,18.20
2018-09-03T00:09:41.582Z,17.37
2018-09-03T00:12:12.226Z,18.27
2018-09-03T00:14:42.005Z,20.00
2018-09-03T00:17:11.599Z,19.90
2018-09-03T00:19:41.278Z,19.20
2018-09-03T00:22:10.807Z,21.23
2018-09-03T00:24:40.370Z,18.20
2018-09-03T00:27:10.242Z,17.37
2018-09-03T00:29:40.427Z,18.83
2018-09-03T00:32:15.269Z,20.20
2018-09-03T00:34:50.183Z,19.27
2018-09-03T00:37:25.211Z,22.30
2018-09-03T00:40:00.086Z,20.13
2018-09-03T00:42:34.865Z,15.90
2018-09-03T00:45:09.744Z,18.70
2018-09-03T00:47:39.270Z,20.07
2018-09-03T00:50:09.010Z,17.53
2018-09-03T00:52:38.740Z,18.87
2018-09-03T00:55:08.663Z,19.30
2018-09-03T00:57:38.735Z,16.73
2018-09-03T01:00:08.884Z,20.10
2018-09-03T01:02:38.578Z,18.67
2018-09-03T01:05:08.630Z,21.27
2018-09-03T01:07:38.301Z,20.47
2018-09-03T01:10:09.019Z,20.33
2018-09-03T01:12:38.595Z,19.10
2018-09-03T01:15:08.167Z,19.50
2018-09-03T01:17:37.972Z,20.20
2018-09-03T01:20:07.967Z,24.13
2018-09-03T01:22:37.608Z,18.90
2018-09-03T01:25:07.299Z,23.80
2018-09-03T01:27:36.999Z,20.03
2018-09-03T01:30:07.323Z,21.17
2018-09-03T01:32:36.943Z,20.03
2018-09-03T01:35:06.551Z,19.67
2018-09-03T01:37:36.273Z,20.27
2018-09-03T01:40:05.951Z,21.30
2018-09-03T01:42:35.611Z,24.53
2018-09-03T01:45:05.758Z,20.47
2018-09-03T01:47:35.698Z,21.20
2018-09-03T01:50:05.615Z,21.63
2018-09-03T01:52:35.259Z,18.83
2018-09-03T01:55:05.034Z,21.83
2018-09-03T01:57:34.783Z,20.03
2018-09-03T02:00:04.709Z,19.37
2018-09-03T02:02:34.307Z,21.53
2018-09-03T02:05:04.272Z,19.83
2018-09-03T02:07:33.962Z,22.80
2018-09-03T02:10:04.063Z,22.20
2018-09-03T02:12:33.823Z,21.70
2018-09-03T02:15:03.642Z,23.83
2018-09-03T02:17:33.163Z,18.83
2018-09-03T02:20:02.867Z,22.47
2018-09-03T02:22:32.471Z,23.17
2018-09-03T02:25:02.182Z,23.37
2018-09-03T02:27:31.710Z,19.23
2018-09-03T02:30:01.226Z,22.07
2018-09-03T02:32:30.756Z,21.90
2018-09-03T02:35:00.291Z,26.43
2018-09-03T02:37:29.823Z,22.10
2018-09-03T02:39:59.347Z,25.53
2018-09-03T02:42:28.863Z,23.00
2018-09-03T02:44:58.395Z,24.20
2018-09-03T02:47:27.918Z,26.90
2018-09-03T02:49:57.418Z,25.50
2018-09-03T02:52:27.327Z,25.23
2018-09-03T02:54:56.848Z,25.47
2018-09-03T02:57:26.635Z,24.60
2018-09-03T02:59:56.229Z,25.30
2018-09-03T03:02:25.996Z,26.97
2018-09-03T03:04:55.530Z,26.40
2018-09-03T03:07:25.182Z,24.77
2018-09-03T03:09:54.963Z,27.87
2018-09-03T03:12:25.989Z,25.50
2018-09-03T03:14:57.018Z,27.73
2018-09-03T03:17:27.302Z,26.20
2018-09-03T03:19:57.095Z,27.87
2018-09-03T03:22:27.026Z,27.80
2018-09-03T03:24:57.119Z,28.93
2018-09-03T03:27:26.847Z,31.97
2018-09-03T03:29:56.562Z,28.60
2018-09-03T03:32:26.383Z,26.43
2018-09-03T03:34:56.383Z,28.90
2018-09-03T03:37:26.450Z,27.33
2018-09-03T03:39:55.988Z,29.60
2018-09-03T03:42:25.639Z,27.47
2018-09-03T03:44:55.541Z,29.90
2018-09-03T03:47:25.210Z,31.37
2018-09-03T03:49:55.080Z,27.87
2018-09-03T03:52:24.727Z,28.40
2018-09-03T03:54:54.477Z,28.47
2018-09-03T03:57:24.383Z,29.23
2018-09-03T03:59:54.031Z,28.70
2018-09-03T04:02:23.780Z,27.80
2018-09-03T04:04:53.406Z,29.43
2018-09-03T04:07:22.939Z,29.03
2018-09-03T04:09:52.723Z,27.17
2018-09-03T04:12:22.408Z,28.67
2018-09-03T04:14:52.075Z,30.77
2018-09-03T04:17:21.719Z,27.50
2018-09-03T04:20:05.922Z,27.93
2018-09-03T04:22:35.451Z,27.43
2018-09-03T04:25:04.987Z,27.57
2018-09-03T04:27:34.554Z,28.37
2018-09-03T04:30:04.663Z,27.30
2018-09-03T04:32:34.223Z,28.57
2018-09-03T04:35:04.008Z,31.70
2018-09-03T04:37:33.645Z,29.97
2018-09-03T04:40:03.359Z,30.77
2018-09-03T04:42:33.280Z,34.10
2018-09-03T04:45:03.011Z,31.87
2018-09-03T04:47:32.694Z,32.17
2018-09-03T04:50:02.283Z,32.50
2018-09-03T04:52:32.354Z,29.90
2018-09-03T04:55:02.665Z,29.83
2018-09-03T04:57:32.462Z,32.03
2018-09-03T05:00:02.483Z,32.43
2018-09-03T05:02:32.203Z,28.37
2018-09-03T05:05:01.888Z,29.30
2018-09-03T05:07:31.694Z,32.43
2018-09-03T05:10:01.224Z,28.17
2018-09-03T05:12:30.931Z,29.43
2018-09-03T05:15:00.528Z,31.13
2018-09-03T05:17:30.461Z,28.00
2018-09-03T05:20:00.237Z,27.83
2018-09-03T05:22:30.060Z,30.20
2018-09-03T05:24:59.826Z,30.30
2018-09-03T05:27:29.465Z,28.40
2018-09-03T05:29:59.362Z,30.30
2018-09-03T05:32:29.182Z,27.83
2018-09-03T05:34:59.012Z,29.50
2018-09-03T05:37:28.704Z,28.57
2018-09-03T05:39:58.434Z,26.43
2018-09-03T05:42:28.029Z,32.20
2018-09-03T05:44:57.965Z,27.07
2018-09-03T05:47:27.652Z,25.07
2018-09-03T05:49:57.584Z,27.33
2018-09-03T05:52:27.178Z,27.23
2018-09-03T05:54:57.011Z,29.47
2018-09-03T05:57:26.831Z,24.70
2018-09-03T05:59:56.495Z,27.47
2018-09-03T06:02:26.287Z,25.97
2018-09-03T06:04:56.322Z,27.43
2018-09-03T06:07:26.167Z,27.37
2018-09-03T06:09:55.837Z,27.03
2018-09-03T06:12:25.506Z,29.17
2018-09-03T06:14:55.052Z,27.27
2018-09-03T06:17:24.650Z,29.37
2018-09-03T06:19:54.272Z,30.90
2018-09-03T06:22:23.915Z,29.10
2018-09-03T06:24:53.899Z,25.53
2018-09-03T06:27:23.548Z,27.77
2018-09-03T06:29:53.443Z,27.13
2018-09-03T06:32:23.085Z,27.47
2018-09-03T06:34:52.731Z,25.80
2018-09-03T06:37:22.466Z,26.43
2018-09-03T06:39:52.151Z,29.87
2018-09-03T06:42:21.824Z,25.20
2018-09-03T06:44:51.520Z,28.00
2018-09-03T06:47:21.250Z,28.43
2018-09-03T06:49:51.016Z,27.60
2018-09-03T06:52:20.724Z,27.20
2018-09-03T06:54:50.446Z,26.33
2018-09-03T06:57:20.041Z,28.30
2018-09-03T06:59:50.000Z,31.13
2018-09-03T07:02:19.635Z,26.20
2018-09-03T07:04:50.193Z,25.70
2018-09-03T07:07:19.991Z,25.07
2018-09-03T07:09:49.666Z,24.57
2018-09-03T07:12:19.356Z,24.93
2018-09-03T07:14:48.927Z,24.90
2018-09-03T07:17:18.623Z,27.07
2018-09-03T07:19:48.339Z,25.33
2018-09-03T07:22:17.846Z,23.63
2018-09-03T07:24:47.454Z,24.53
2018-09-03T07:27:17.134Z,24.17
2018-09-03T07:29:46.872Z,24.83
2018-09-03T07:32:16.611Z,23.73
2018-09-03T07:34:46.403Z,26.03
2018-09-03T07:37:16.246Z,24.03
2018-09-03T07:39:45.886Z,22.13
2018-09-03T07:42:15.603Z,22.70
2018-09-03T07:44:45.313Z,22.37
2018-09-03T07:47:15.112Z,22.20
2018-09-03T07:49:44.750Z,21.70
2018-09-03T07:52:14.526Z,19.17
2018-09-03T07:54:44.181Z,21.73
2018-09-03T07:57:13.921Z,20.60
2018-09-03T07:59:43.495Z,18.67
2018-09-03T08:02:13.178Z,22.40
2018-09-03T08:04:42.990Z,21.00
2018-09-03T08:07:12.811Z,18.27
2018-09-03T08:09:42.706Z,19.63
2018-09-03T08:12:12.427Z,19.80
2018-09-03T08:14:42.304Z,18.27
2018-09-03T08:17:11.843Z,19.83
2018-09-03T08:19:41.408Z,20.60
2018-09-03T08:22:11.194Z,21.33
2018-09-03T08:24:40.783Z,22.03
2018-09-03T08:27:10.358Z,20.67
2018-09-03T08:29:39.908Z,20.43
2018-09-03T08:32:09.675Z,20.00
2018-09-03T08:34:39.248Z,18.57
2018-09-03T08:37:08.818Z,19.20
2018-09-03T08:39:38.375Z,18.97
2018-09-03T08:42:08.066Z,19.80
2018-09-03T08:44:37.640Z,20.27
2018-09-03T08:47:07.795Z,16.10
2018-09-03T08:49:37.364Z,17.43
2018-09-03T08:52:07.426Z,16.83
2018-09-03T08:54:37.123Z,16.60
2018-09-03T08:57:06.692Z,17.57
2018-09-03T08:59:36.382Z,16.90
2018-09-03T09:02:05.983Z,22.43
2018-09-03T09:04:35.707Z,19.97
2018-09-03T09:07:05.291Z,19.47
2018-09-03T09:09:34.934Z,19.60
2018-09-03T09:12:04.498Z,20.20
2018-09-03T09:14:34.055Z,21.03
2018-09-03T09:17:04.119Z,22.47
2018-09-03T09:19:33.759Z,19.53
2018-09-03T09:22:03.325Z,22.93
2018-09-03T09:24:32.977Z,21.60
2018-09-03T09:27:02.656Z,24.53
2018-09-03T09:29:32.279Z,23.37
2018-09-03T09:32:01.788Z,24.13
2018-09-03T09:34:31.356Z,24.77
2018-09-03T09:37:01.007Z,20.03
2018-09-03T09:39:30.503Z,20.13
2018-09-03T09:42:00.096Z,20.17
2018-09-03T09:44:29.626Z,19.90
2018-09-03T09:46:59.539Z,19.63
2018-09-03T09:49:29.100Z,19.90
2018-09-03T09:51:58.662Z,19.80
2018-09-03T09:54:28.394Z,20.60
2018-09-03T09:56:58.164Z,18.27
2018-09-03T09:59:27.703Z,19.33
2018-09-03T10:01:57.240Z,18.30
2018-09-03T10:04:26.812Z,18.97
2018-09-03T10:06:56.541Z,18.87
2018-09-03T10:09:26.107Z,21.20
2018-09-03T10:11:55.650Z,20.70
2018-09-03T10:14:25.212Z,16.87
2018-09-03T10:16:54.737Z,18.90
2018-09-03T10:19:24.322Z,20.83
2018-09-03T10:21:53.870Z,15.87
2018-09-03T10:24:23.430Z,16.63
2018-09-03T10:26:52.956Z,19.03
2018-09-03T10:29:22.610Z,18.90
2018-09-03T10:31:52.190Z,17.73
2018-09-03T10:34:21.915Z,17.70
2018-09-03T10:36:51.535Z,16.53
2018-09-03T10:39:21.249Z,16.93
2018-09-03T10:41:50.824Z,17.93
2018-09-03T10:44:20.508Z,18.43
2018-09-03T10:46:50.483Z,17.20
2018-09-03T10:49:20.247Z,15.20
2018-09-03T10:51:49.823Z,19.53
2018-09-03T10:54:19.492Z,16.90
2018-09-03T10:56:49.270Z,17.77
2018-09-03T10:59:18.803Z,19.87
2018-09-03T11:01:48.459Z,17.87
2018-09-03T11:04:18.063Z,17.87
2018-09-03T11:06:47.619Z,18.77
2018-09-03T11:09:17.171Z,22.23
2018-09-03T11:11:46.674Z,20.67
2018-09-03T11:14:16.329Z,20.30
2018-09-03T11:16:46.000Z,20.00
2018-09-03T11:19:16.119Z,23.30
2018-09-03T11:21:45.695Z,24.30
2018-09-03T11:24:15.291Z,24.50
2018-09-03T11:26:44.847Z,25.67
2018-09-03T11:29:14.483Z,25.80
2018-09-03T11:31:44.123Z,23.40
2018-09-03T11:34:13.754Z,19.10
2018-09-03T11:36:43.434Z,18.50
2018-09-03T11:39:13.447Z,15.30
2018-09-03T11:41:42.988Z,14.67
2018-09-03T11:44:13.022Z,15.00
2018-09-03T11:46:42.839Z,23.37
2018-09-03T11:49:12.481Z,25.10
2018-09-03T11:51:42.071Z,23.33
2018-09-03T11:54:11.946Z,20.37
2018-09-03T11:56:41.507Z,22.47
2018-09-03T11:59:12.352Z,21.57
2018-09-03T12:01:42.298Z,21.67
2018-09-03T12:04:11.886Z,21.00
2018-09-03T12:06:41.919Z,23.43
2018-09-03T12:09:12.312Z,19.43
2018-09-03T12:11:41.968Z,14.10
2018-09-03T12:14:21.603Z,15.93
2018-09-03T12:16:51.665Z,14.67
2018-09-03T12:19:22.590Z,14.93
2018-09-03T12:21:52.506Z,14.60
2018-09-03T12:24:22.278Z,16.60
2018-09-03T12:26:52.088Z,13.80
2018-09-03T12:29:21.999Z,13.73
2018-09-03T12:31:51.807Z,13.37
2018-09-03T12:34:21.434Z,15.77
2018-09-03T12:36:51.145Z,23.00
2018-09-03T12:39:20.923Z,16.70
2018-09-03T12:41:50.463Z,16.63
2018-09-03T12:44:20.125Z,15.60
2018-09-03T12:46:49.684Z,14.40
2018-09-03T12:49:19.254Z,18.30
2018-09-03T12:51:48.825Z,15.50
2018-09-03T12:54:18.671Z,15.10
2018-09-03T12:56:48.474Z,17.00
2018-09-03T12:59:18.046Z,14.03
2018-09-03T13:01:47.572Z,12.47
2018-09-03T13:04:17.133Z,12.87
2018-09-03T13:06:46.708Z,12.70
2018-09-03T13:09:16.265Z,12.97
2018-09-03T13:11:46.048Z,19.10
2018-09-03T13:14:15.748Z,13.07
2018-09-03T13:16:45.331Z,13.07
2018-09-03T13:19:15.331Z,10.30
2018-09-03T13:21:45.131Z,10.87
2018-09-03T13:24:14.885Z,12.03
2018-09-03T13:26:44.923Z,10.93
2018-09-03T13:29:14.522Z,11.83
2018-09-03T13:31:44.439Z,12.10
2018-09-03T13:34:14.187Z,11.63
2018-09-03T13:36:43.732Z,11.93
2018-09-03T13:39:13.439Z,12.20
2018-09-03T13:41:43.139Z,12.73
2018-09-03T13:44:13.049Z,13.10
2018-09-03T13:46:42.650Z,13.60
2018-09-03T13:49:12.363Z,13.03
2018-09-03T13:51:42.009Z,12.60
2018-09-03T13:54:11.575Z,14.07
2018-09-03T13:56:41.463Z,13.00
2018-09-03T13:59:11.396Z,12.47
2018-09-03T14:01:41.034Z,14.23
2018-09-03T14:04:10.747Z,13.30
2018-09-03T14:06:40.355Z,14.70
2018-09-03T14:09:10.359Z,14.37
2018-09-03T14:11:40.242Z,14.93
2018-09-03T14:14:09.980Z,13.90
2018-09-03T14:16:39.557Z,14.40
2018-09-03T14:19:09.235Z,12.30
2018-09-03T14:21:38.806Z,13.33
2018-09-03T14:24:08.733Z,10.10
2018-09-03T14:26:38.259Z,10.13
2018-09-03T14:29:07.807Z,13.60
2018-09-03T14:31:37.579Z,12.17
2018-09-03T14:34:07.692Z,9.20
2018-09-03T14:36:37.250Z,9.90
2018-09-03T14:39:10.484Z,8.20
2018-09-03T14:41:40.035Z,9.13
2018-09-03T14:44:10.235Z,9.37
2018-09-03T14:46:39.792Z,10.80
2018-09-03T14:49:09.331Z,10.50
2018-09-03T14:51:38.898Z,12.07
2018-09-03T14:54:08.443Z,11.10
2018-09-03T14:56:38.023Z,10.50
2018-09-03T14:59:07.611Z,11.60
2018-09-03T15:01:37.174Z,11.60
2018-09-03T15:04:06.862Z,12.33
2018-09-03T15:06:36.531Z,9.23
2018-09-03T15:09:08.767Z,12.23
2018-09-03T15:11:38.342Z,11.57
2018-09-03T15:14:08.312Z,13.37
2018-09-03T15:16:37.859Z,11.07
2018-09-03T15:19:07.806Z,12.20
2018-09-03T15:21:37.402Z,11.93
2018-09-03T15:24:06.941Z,11.00
2018-09-03T15:26:36.739Z,12.10
2018-09-03T15:29:06.755Z,11.68
2018-09-03T15:31:36.459Z,11.10
2018-09-03T15:34:06.504Z,11.80
2018-09-03T15:36:36.146Z,10.97
2018-09-03T15:39:10.251Z,11.70
2018-09-03T15:41:39.836Z,12.80
2018-09-03T15:44:09.600Z,11.77
2018-09-03T15:46:39.432Z,11.70
2018-09-03T15:49:09.027Z,11.87
2018-09-03T15:51:38.739Z,13.40
2018-09-03T15:54:08.931Z,9.87
2018-09-03T15:56:38.727Z,10.00
2018-09-03T15:59:08.351Z,9.87
2018-09-03T16:01:37.980Z,10.73
2018-09-03T16:04:07.647Z,9.73
2018-09-03T16:06:37.220Z,10.40
2018-09-03T16:09:10.466Z,9.63
2018-09-03T16:11:40.178Z,10.73
2018-09-03T16:14:10.215Z,9.87
2018-09-03T16:16:39.731Z,8.90
2018-09-03T16:19:09.455Z,9.50
2018-09-03T16:21:39.240Z,9.60
2018-09-03T16:24:08.988Z,9.13
2018-09-03T16:26:38.544Z,9.57
2018-09-03T16:29:08.573Z,9.45
2018-09-03T16:31:38.170Z,10.03
2018-09-03T16:34:07.771Z,11.10
2018-09-03T16:36:37.399Z,10.57
2018-09-03T16:39:07.987Z,12.87
2018-09-03T16:41:37.924Z,11.40
2018-09-03T16:44:07.553Z,11.70
2018-09-03T16:46:37.287Z,10.47
2018-09-03T16:49:07.078Z,8.67
2018-09-03T16:51:36.931Z,8.50
2018-09-03T16:54:07.342Z,8.67
2018-09-03T16:56:36.953Z,9.47
2018-09-03T16:59:06.475Z,8.73
2018-09-03T17:01:36.101Z,9.00
2018-09-03T17:04:06.356Z,9.40
2018-09-03T17:06:36.359Z,9.50
2018-09-03T17:09:06.550Z,9.10
2018-09-03T17:11:36.085Z,8.97
2018-09-03T17:14:06.055Z,9.73
2018-09-03T17:16:35.899Z,11.97
2018-09-03T17:19:06.227Z,12.57
2018-09-03T17:21:35.886Z,10.03
2018-09-03T17:24:05.496Z,10.30
2018-09-03T17:26:35.155Z,13.87
2018-09-03T17:29:04.823Z,11.53
2018-09-03T17:31:34.481Z,12.93
2018-09-03T17:34:04.055Z,11.03
2018-09-03T17:36:33.644Z,10.60
2018-09-03T17:39:03.280Z,13.80
2018-09-03T17:41:32.911Z,12.93
2018-09-03T17:44:02.581Z,12.33
2018-09-03T17:46:32.339Z,15.20
2018-09-03T17:49:01.988Z,11.83
2018-09-03T17:51:31.572Z,11.67
2018-09-03T17:54:01.156Z,12.67
2018-09-03T17:56:30.962Z,12.20
2018-09-03T17:59:00.646Z,13.23
2018-09-03T18:01:30.492Z,10.83
2018-09-03T18:04:00.175Z,12.20
2018-09-03T18:06:29.751Z,11.33
2018-09-03T18:08:59.451Z,16.67
2018-09-03T18:11:29.063Z,12.23
2018-09-03T18:13:58.624Z,13.13
2018-09-03T18:16:28.292Z,11.50
2018-09-03T18:18:57.975Z,10.60
2018-09-03T18:21:27.531Z,10.83
2018-09-03T18:23:57.154Z,12.40
2018-09-03T18:26:26.763Z,10.83
2018-09-03T18:28:56.363Z,10.40
2018-09-03T18:31:25.964Z,11.17
2018-09-03T18:33:55.512Z,10.90
2018-09-03T18:36:25.134Z,11.43
2018-09-03T18:38:54.715Z,11.63
2018-09-03T18:41:24.603Z,10.57
2018-09-03T18:43:54.311Z,10.23
2018-09-03T18:46:23.882Z,10.70
2018-09-03T18:48:53.467Z,11.03
2018-09-03T18:51:23.236Z,10.03
2018-09-03T18:53:53.038Z,10.23
2018-09-03T18:56:22.879Z,10.80
2018-09-03T18:58:52.472Z,11.07
2018-09-03T19:01:25.117Z,11.53
2018-09-03T19:03:56.772Z,25.37
2018-09-03T19:06:26.423Z,19.60
2018-09-03T19:08:56.340Z,11.93
2018-09-03T19:11:26.885Z,18.23
2018-09-03T19:13:56.754Z,11.97
2018-09-03T19:16:26.361Z,15.43
2018-09-03T19:18:55.992Z,12.00
2018-09-03T19:21:25.935Z,14.90
2018-09-03T19:23:55.581Z,11.57
2018-09-03T19:26:25.244Z,14.67
2018-09-03T19:28:54.871Z,11.83
2018-09-03T19:31:24.754Z,11.00
2018-09-03T19:33:54.407Z,11.60
2018-09-03T19:36:24.016Z,10.97
2018-09-03T19:38:53.731Z,12.80
2018-09-03T19:41:23.381Z,12.37
2018-09-03T19:43:53.095Z,11.53
2018-09-03T19:46:22.958Z,12.67
2018-09-03T19:48:52.834Z,12.00
2018-09-03T19:51:23.001Z,12.20
2018-09-03T19:53:52.587Z,14.10
2018-09-03T19:56:22.216Z,12.87
2018-09-03T19:58:51.834Z,14.70
2018-09-03T20:01:21.520Z,13.07
2018-09-03T20:03:51.164Z,14.70
2018-09-03T20:06:20.783Z,12.87
2018-09-03T20:08:50.391Z,14.00
2018-09-03T20:11:20.009Z,15.20
2018-09-03T20:13:49.544Z,12.63
2018-09-03T20:16:19.266Z,12.40
2018-09-03T20:18:48.847Z,14.60
2018-09-03T20:21:18.487Z,14.47
2018-09-03T20:23:49.060Z,13.83
2018-09-03T20:26:18.640Z,12.43
2018-09-03T20:28:49.932Z,12.97
2018-09-03T20:31:19.554Z,13.00
2018-09-03T20:33:49.264Z,13.77
2018-09-03T20:36:18.942Z,12.37
2018-09-03T20:38:48.636Z,13.67
2018-09-03T20:41:18.260Z,14.47
2018-09-03T20:43:47.867Z,22.73
2018-09-03T20:46:17.573Z,14.07
2018-09-03T20:48:47.411Z,13.83
2018-09-03T20:51:17.025Z,15.60
2018-09-03T20:53:46.600Z,17.87
2018-09-03T20:56:16.268Z,15.40
2018-09-03T20:58:46.219Z,16.17
2018-09-03T21:01:15.815Z,14.03
2018-09-03T21:03:45.456Z,12.37
2018-09-03T21:06:15.029Z,13.20
2018-09-03T21:08:44.710Z,14.43
2018-09-03T21:11:14.357Z,13.40
2018-09-03T21:13:43.937Z,13.37
2018-09-03T21:16:13.520Z,12.47
2018-09-03T21:18:43.415Z,15.97
2018-09-03T21:21:13.174Z,15.30
2018-09-03T21:23:42.748Z,14.47
2018-09-03T21:26:12.557Z,16.87
2018-09-03T21:28:42.297Z,15.70
2018-09-03T21:31:11.955Z,14.13
2018-09-03T21:33:41.561Z,13.83
2018-09-03T21:36:11.245Z,14.57
2018-09-03T21:38:40.882Z,14.27
2018-09-03T21:41:11.135Z,13.07
2018-09-03T21:43:40.734Z,12.37
2018-09-03T21:46:10.539Z,12.10
2018-09-03T21:48:40.094Z,15.23
2018-09-03T21:51:09.666Z,14.60
2018-09-03T21:53:39.231Z,13.43
2018-09-03T21:56:08.818Z,12.53
2018-09-03T21:58:38.382Z,13.73
2018-09-03T22:01:08.147Z,15.57
2018-09-03T22:03:37.674Z,13.23
2018-09-03T22:06:07.274Z,16.27
2018-09-03T22:08:36.949Z,15.80
2018-09-03T22:11:07.042Z,13.87
2018-09-03T22:13:36.684Z,15.43
2018-09-03T22:16:08.152Z,14.67
2018-09-03T22:18:39.062Z,14.17
2018-09-03T22:21:09.159Z,12.80
2018-09-03T22:23:39.342Z,13.40
2018-09-03T22:26:09.003Z,13.30
2018-09-03T22:28:38.778Z,15.27
2018-09-03T22:31:08.335Z,14.80
2018-09-03T22:33:37.902Z,13.67
2018-09-03T22:36:07.979Z,12.43
2018-09-03T22:38:37.550Z,14.30
2018-09-03T22:41:07.451Z,13.23
2018-09-03T22:43:37.011Z,12.90
2018-09-03T22:46:06.679Z,15.23
2018-09-03T22:48:36.395Z,19.33
2018-09-03T22:51:06.314Z,14.17
2018-09-03T22:53:35.870Z,14.20
2018-09-03T22:56:05.443Z,13.57
2018-09-03T22:58:34.992Z,13.87
2018-09-03T23:01:04.564Z,13.60
2018-09-03T23:03:34.082Z,14.87
2018-09-03T23:06:03.662Z,13.10
2018-09-03T23:08:33.199Z,13.10
2018-09-03T23:11:02.767Z,13.73
2018-09-03T23:13:32.506Z,14.10
2018-09-03T23:16:02.066Z,14.90
2018-09-03T23:18:31.811Z,13.27
2018-09-03T23:21:01.318Z,15.60
2018-09-03T23:23:31.064Z,16.67
2018-09-03T23:26:00.607Z,16.93
2018-09-03T23:28:30.152Z,13.43
2018-09-03T23:30:59.693Z,13.00
2018-09-03T23:33:29.215Z,13.77
2018-09-03T23:35:58.758Z,13.20
2018-09-03T23:38:28.348Z,13.77
2018-09-03T23:40:57.898Z,14.40
2018-09-03T23:43:27.708Z,16.17
2018-09-03T23:45:57.260Z,13.80
2018-09-03T23:48:26.811Z,13.97
2018-09-03T23:50:56.394Z,15.23
2018-09-03T23:53:25.947Z,13.10
2018-09-03T23:55:56.093Z,13.63
2018-09-03T23:58:25.659Z,13.43
